Terminal Aerodrome Forecast
Issued by NWS

Home | Current Version | Previous Version | Text Only | Print | Product List | Glossary On
Versions: 1 2 3 4 5 6 7 8 9 10 11 12 13 14 15 16 17
000
FTUS43 KGRR 281740
TAFMKG
TAF
KMKG 281740Z 2818/2918 17020G30KT P6SM -SHRA OVC060
     FM290500 21022G32KT P6SM VCTS BKN050CB
     FM290900 22016G24KT P6SM VCTS OVC025CB
     FM291200 22015G22KT P6SM BKN025=

USA.gov is the U.S. government's official web portal to all federal, state and local government web resources and services.